Time;durP1;ratioP1;P1;durP2;ratioP2;P2;SDS_P1;SDS_P2;PMS_P1;PMS_P2;Temp;Humidity;BMP_temperature;BMP_pressure;BME280_temperature;BME280_humidity;BME280_pressure;Samples;Min_cycle;Max_cycle;Signal;HPM_P1;HPM_P2
2024/02/01 00:02:07;;;;;;;0.63;0.10;;;2.00;90.40;;;;;;20681215;28;20118;-43
2024/02/01 00:12:08;;;;;;;0.60;0.20;;;1.80;90.20;;;;;;20677467;28;20055;-44
2024/02/01 00:22:10;;;;;;;0.20;0.10;;;1.90;90.20;;;;;;20678499;28;20068;-44
2024/02/01 00:32:14;;;;;;;0.20;0.20;;;1.90;90.20;;;;;;20677139;28;21247;-44
2024/02/01 00:42:19;;;;;;;0.30;0.10;;;2.00;90.10;;;;;;20674513;28;20094;-44
2024/02/01 00:52:21;;;;;;;0.22;0.08;;;2.70;85.00;;;;;;20676627;28;20033;-45
2024/02/01 01:02:23;;;;;;;0.47;0.10;;;2.40;86.60;;;;;;20675617;28;20068;-43
2024/02/01 01:12:30;;;;;;;0.63;0.10;;;2.20;87.40;;;;;;20675415;28;20526;-45
2024/02/01 01:22:32;;;;;;;0.10;0.00;;;2.00;87.90;;;;;;20673035;28;20166;-44
2024/02/01 01:32:34;;;;;;;0.20;0.10;;;1.80;87.60;;;;;;20673999;28;20193;-46
2024/02/01 01:42:38;;;;;;;0.22;0.10;;;1.70;88.00;;;;;;20670065;28;21709;-44
2024/02/01 01:52:42;;;;;;;0.32;0.10;;;1.90;87.40;;;;;;20671942;28;20087;-44
2024/02/01 02:02:47;;;;;;;1.27;0.10;;;2.10;86.90;;;;;;20672601;28;20127;-48
2024/02/01 02:12:49;;;;;;;0.20;0.05;;;2.00;88.70;;;;;;20671659;28;20150;-43
2024/02/01 02:22:54;;;;;;;0.50;0.10;;;2.00;89.00;;;;;;20672109;28;20742;-43
2024/02/01 02:32:57;;;;;;;1.95;0.20;;;1.90;88.50;;;;;;20678206;28;20061;-44
2024/02/01 02:42:59;;;;;;;0.40;0.10;;;2.00;89.50;;;;;;20685750;28;20676;-44
2024/02/01 02:53:01;;;;;;;0.77;0.13;;;1.90;89.40;;;;;;20686772;28;20095;-45
2024/02/01 03:03:04;;;;;;;2.08;0.13;;;1.90;89.70;;;;;;20679996;28;20158;-43
2024/02/01 03:13:09;;;;;;;0.28;0.10;;;2.00;88.60;;;;;;20682818;28;21278;-44
2024/02/01 03:23:11;;;;;;;0.13;0.10;;;2.00;88.90;;;;;;20681862;28;20084;-40
2024/02/01 03:33:13;;;;;;;0.65;0.17;;;1.80;89.30;;;;;;20678949;28;20927;-44
2024/02/01 03:43:15;;;;;;;0.20;0.10;;;1.90;88.70;;;;;;20677690;28;20687;-43
2024/02/01 03:53:18;;;;;;;0.10;0.10;;;1.80;89.30;;;;;;20678906;28;20091;-44
2024/02/01 04:03:20;;;;;;;0.30;0.15;;;1.70;90.00;;;;;;20676792;28;20098;-45
2024/02/01 04:13:21;;;;;;;1.08;0.20;;;1.80;90.00;;;;;;20677945;28;20052;-44
2024/02/01 04:23:23;;;;;;;0.57;0.20;;;1.40;90.60;;;;;;20677509;28;20127;-46
2024/02/01 04:33:25;;;;;;;0.20;0.10;;;1.50;90.60;;;;;;20679106;28;20126;-45
2024/02/01 04:43:26;;;;;;;0.55;0.10;;;1.60;89.70;;;;;;20680064;28;20041;-45
2024/02/01 04:53:28;;;;;;;0.70;0.20;;;1.70;90.00;;;;;;20677109;28;20033;-44
2024/02/01 05:03:31;;;;;;;0.52;0.20;;;1.90;89.30;;;;;;20673052;28;20110;-45
2024/02/01 05:13:33;;;;;;;0.38;0.10;;;2.10;89.60;;;;;;20674879;28;20656;-44
2024/02/01 05:23:35;;;;;;;3.05;0.30;;;1.80;90.10;;;;;;20675368;28;20880;-43
2024/02/01 05:33:37;;;;;;;0.75;0.20;;;1.60;90.80;;;;;;20672556;28;20146;-43
2024/02/01 05:43:43;;;;;;;0.80;0.10;;;1.70;90.50;;;;;;20674903;28;20068;-43
2024/02/01 05:53:44;;;;;;;2.10;0.30;;;1.80;90.30;;;;;;20674901;28;21536;-44
2024/02/01 06:03:46;;;;;;;0.98;0.40;;;1.60;91.00;;;;;;20671892;28;20693;-44
2024/02/01 06:13:48;;;;;;;2.30;0.28;;;1.50;91.70;;;;;;20686735;28;20090;-44
2024/02/01 06:23:56;;;;;;;1.48;0.30;;;1.60;91.60;;;;;;20687182;28;20076;-46
2024/02/01 06:33:58;;;;;;;1.35;0.20;;;2.00;91.40;;;;;;20687853;28;20150;-46
2024/02/01 06:44:21;;;;;;;0.98;0.25;;;2.10;91.40;;;;;;20684645;28;20036;-46
2024/02/01 06:54:39;;;;;;;2.40;0.30;;;2.20;91.40;;;;;;20682242;28;20033;-45
2024/02/01 07:04:55;;;;;;;2.08;0.30;;;2.40;91.90;;;;;;20679802;28;20068;-45
2024/02/01 07:15:19;;;;;;;2.90;0.40;;;2.70;91.10;;;;;;20653739;28;20123;-43
2024/02/01 07:25:36;;;;;;;1.00;0.30;;;3.10;91.00;;;;;;20678915;28;20134;-45
2024/02/01 08:17:04;;;;;;;1.17;0.40;;;4.90;87.10;;;;;;20676664;28;21226;-47
2024/02/01 08:27:07;;;;;;;2.55;0.40;;;5.90;84.20;;;;;;20676621;28;20335;-45
2024/02/01 08:37:09;;;;;;;3.47;0.60;;;6.90;82.10;;;;;;20674763;28;20055;-45
2024/02/01 08:47:13;;;;;;;4.85;1.30;;;7.60;80.10;;;;;;20675712;28;20664;-45
2024/02/01 08:57:15;;;;;;;4.30;1.00;;;7.80;78.20;;;;;;20671347;28;20068;-45
2024/02/01 09:07:19;;;;;;;2.10;0.30;;;7.90;78.60;;;;;;20676148;28;21719;-45
2024/02/01 09:17:21;;;;;;;2.10;0.30;;;7.80;77.90;;;;;;20674283;28;20057;-45
2024/02/01 09:27:24;;;;;;;1.48;0.38;;;7.90;79.90;;;;;;20672327;28;21161;-45
2024/02/01 09:37:26;;;;;;;2.08;0.43;;;7.90;81.70;;;;;;20672707;28;20037;-45
2024/02/01 09:47:41;;;;;;;1.70;0.40;;;7.80;79.90;;;;;;20680796;28;20072;-44
2024/02/01 09:57:48;;;;;;;2.88;0.65;;;7.80;79.40;;;;;;20686739;28;20071;-46
2024/02/01 10:07:52;;;;;;;0.80;0.25;;;7.90;77.30;;;;;;20684460;28;21164;-44
2024/02/01 10:17:54;;;;;;;5.20;0.52;;;8.10;77.20;;;;;;20685877;28;20561;-46
2024/02/01 10:27:56;;;;;;;1.27;0.30;;;7.90;79.80;;;;;;20685344;28;20045;-45
2024/02/01 10:38:01;;;;;;;1.95;0.47;;;7.70;81.60;;;;;;20683260;28;20041;-45
2024/02/01 10:48:10;;;;;;;3.72;0.40;;;7.70;80.30;;;;;;20681480;28;20033;-47
2024/02/01 10:58:12;;;;;;;3.30;0.60;;;7.80;80.90;;;;;;20680832;28;20068;-48
2024/02/01 11:08:17;;;;;;;1.52;0.50;;;7.40;82.60;;;;;;20683137;28;20114;-44
2024/02/01 11:18:20;;;;;;;2.13;0.43;;;7.20;83.20;;;;;;20680440;28;20151;-44
2024/02/01 11:28:28;;;;;;;2.58;0.50;;;7.00;83.50;;;;;;20681154;28;20064;-45
2024/02/01 11:38:30;;;;;;;2.35;0.60;;;7.00;84.50;;;;;;20680131;28;20793;-46
2024/02/01 11:48:32;;;;;;;2.03;0.30;;;7.10;83.50;;;;;;20683578;28;20045;-44
2024/02/01 11:58:34;;;;;;;2.00;0.20;;;7.60;78.10;;;;;;20680424;28;20788;-44
2024/02/01 12:08:36;;;;;;;2.10;0.30;;;8.20;73.60;;;;;;20676717;28;20072;-44
2024/02/01 12:18:39;;;;;;;0.90;0.10;;;8.50;72.50;;;;;;20677365;28;20070;-44
2024/02/01 12:28:40;;;;;;;3.45;0.20;;;8.70;72.60;;;;;;20675713;28;20072;-45
2024/02/01 12:38:44;;;;;;;2.47;0.40;;;8.80;72.30;;;;;;20673870;28;20526;-47
2024/02/01 12:48:46;;;;;;;2.42;0.30;;;8.90;72.00;;;;;;20657685;28;20045;-46
2024/02/01 12:58:48;;;;;;;2.33;0.40;;;9.10;72.90;;;;;;20673854;28;20067;-46
2024/02/01 13:08:52;;;;;;;1.80;0.20;;;9.20;73.30;;;;;;20672239;28;20037;-54
2024/02/01 13:18:55;;;;;;;0.45;0.10;;;9.20;73.40;;;;;;20673680;28;20871;-47
2024/02/01 13:28:56;;;;;;;0.57;0.10;;;9.70;74.00;;;;;;20670405;28;20072;-46
2024/02/01 13:39:05;;;;;;;1.48;0.65;;;11.40;73.90;;;;;;20657739;28;20150;-45
2024/02/01 13:49:08;;;;;;;1.80;0.50;;;11.60;73.40;;;;;;20671491;28;20210;-45
2024/02/01 13:59:10;;;;;;;4.75;0.70;;;10.60;73.60;;;;;;20673176;28;20041;-46
2024/02/01 14:09:12;;;;;;;2.53;0.80;;;10.10;75.00;;;;;;20673115;28;20045;-46
2024/02/01 14:19:14;;;;;;;3.53;1.05;;;9.70;76.30;;;;;;20670561;28;20071;-47
2024/02/01 14:29:16;;;;;;;2.88;0.75;;;9.10;77.30;;;;;;20674273;28;20085;-47
2024/02/01 14:39:21;;;;;;;2.25;0.47;;;8.20;79.00;;;;;;20682837;28;20125;-44
2024/02/01 14:49:23;;;;;;;6.43;1.10;;;7.40;80.60;;;;;;20667442;28;21333;-45
2024/02/01 14:59:24;;;;;;;1.77;0.75;;;6.90;81.80;;;;;;20682449;28;20118;-44
2024/02/01 15:09:26;;;;;;;3.50;0.60;;;6.50;83.40;;;;;;20680884;28;20102;-45
2024/02/01 15:19:28;;;;;;;1.90;0.50;;;6.70;79.40;;;;;;20675485;28;21025;-45
2024/02/01 15:29:30;;;;;;;4.30;0.40;;;6.70;83.70;;;;;;20680785;28;20162;-45
2024/02/01 15:39:32;;;;;;;0.82;0.20;;;6.40;84.00;;;;;;20679729;28;20917;-44
2024/02/01 15:49:37;;;;;;;7.97;4.10;;;5.30;87.70;;;;;;20676301;28;20084;-43
2024/02/01 15:59:39;;;;;;;3.75;1.27;;;4.40;90.30;;;;;;20675182;28;21192;-45
2024/02/01 16:09:41;;;;;;;2.28;0.60;;;3.90;91.00;;;;;;20674964;28;20076;-44
2024/02/01 16:19:43;;;;;;;0.80;0.30;;;3.70;91.90;;;;;;20675387;28;20522;-44
2024/02/01 16:30:02;;;;;;;1.27;0.20;;;3.50;91.80;;;;;;20674350;28;20148;-44
2024/02/01 16:40:16;;;;;;;1.13;0.70;;;3.20;93.30;;;;;;20670888;28;21191;-43
2024/02/01 16:50:37;;;;;;;0.88;0.22;;;2.90;94.50;;;;;;20672188;28;20597;-44
2024/02/01 17:00:39;;;;;;;1.65;0.10;;;2.70;96.10;;;;;;20673755;28;21082;-44
2024/02/01 17:10:54;;;;;;;0.40;0.10;;;2.50;97.50;;;;;;20672557;28;21152;-45
2024/02/01 17:20:56;;;;;;;1.08;0.10;;;2.50;98.40;;;;;;20674503;28;20088;-44
2024/02/01 17:31:33;;;;;;;1.98;0.30;;;2.40;98.70;;;;;;20669652;28;20081;-45
2024/02/01 17:41:37;;;;;;;0.60;0.10;;;2.40;96.90;;;;;;20461345;28;20069;-44
2024/02/01 17:51:45;;;;;;;2.58;0.55;;;2.70;95.40;;;;;;20454395;28;20120;-45
2024/02/01 18:01:47;;;;;;;2.15;0.40;;;2.70;95.10;;;;;;20451243;28;20170;-43
2024/02/01 18:11:56;;;;;;;1.08;0.25;;;2.60;95.20;;;;;;20520199;28;20072;-44
2024/02/01 18:22:01;;;;;;;2.22;0.38;;;2.50;95.10;;;;;;20681989;28;21343;-44
2024/02/01 18:32:02;;;;;;;1.50;0.30;;;3.20;93.20;;;;;;20687539;28;20449;-44
2024/02/01 18:42:05;;;;;;;2.75;0.40;;;3.70;92.90;;;;;;20676833;28;20065;-44
2024/02/01 18:52:07;;;;;;;1.90;0.35;;;3.60;93.20;;;;;;20679840;28;21049;-43
2024/02/01 19:02:24;;;;;;;2.03;0.40;;;3.80;93.40;;;;;;20678878;28;20061;-44
2024/02/01 19:12:44;;;;;;;1.55;0.20;;;4.00;93.50;;;;;;20676983;28;20052;-44
2024/02/01 19:22:48;;;;;;;3.65;0.20;;;4.70;92.50;;;;;;20682141;28;20049;-47
2024/02/01 19:32:52;;;;;;;1.23;0.20;;;5.30;91.60;;;;;;20682828;28;20041;-45
2024/02/01 19:42:54;;;;;;;1.23;0.13;;;5.40;91.70;;;;;;20683358;28;20407;-46
2024/02/01 19:52:56;;;;;;;0.50;0.10;;;5.50;91.50;;;;;;20683716;28;20098;-47
2024/02/01 20:02:58;;;;;;;1.23;0.10;;;5.20;92.00;;;;;;20677538;28;20707;-44
2024/02/01 20:13:00;;;;;;;0.38;0.10;;;5.40;91.80;;;;;;20679777;28;20154;-45
2024/02/01 20:23:02;;;;;;;1.17;0.10;;;5.70;91.20;;;;;;20679105;28;20159;-44
2024/02/01 20:33:05;;;;;;;0.95;0.20;;;5.70;90.90;;;;;;20677956;28;20065;-45
2024/02/01 20:43:18;;;;;;;1.10;0.20;;;5.40;91.40;;;;;;20679494;28;20162;-45
2024/02/01 20:53:30;;;;;;;0.20;0.00;;;5.00;91.70;;;;;;20676085;28;20155;-45
2024/02/01 21:03:32;;;;;;;0.35;0.00;;;5.00;91.90;;;;;;20675891;28;20173;-44
2024/02/01 21:13:34;;;;;;;2.22;0.10;;;5.00;91.80;;;;;;20671003;28;20037;-44
2024/02/01 21:23:47;;;;;;;0.30;0.00;;;4.70;92.20;;;;;;20675441;28;20424;-44
2024/02/01 21:33:58;;;;;;;0.55;0.00;;;4.30;92.60;;;;;;20675888;28;20661;-43
2024/02/01 21:44:00;;;;;;;0.00;0.00;;;4.00;92.80;;;;;;20698511;28;20122;-44
2024/02/01 21:54:02;;;;;;;0.00;0.00;;;3.80;93.10;;;;;;20700985;28;20111;-44
2024/02/01 22:04:04;;;;;;;0.38;0.10;;;3.70;93.40;;;;;;20701167;28;20079;-45
2024/02/01 22:14:06;;;;;;;0.20;0.10;;;3.60;93.40;;;;;;20700385;28;21178;-44
2024/02/01 22:24:08;;;;;;;0.10;0.00;;;3.80;93.10;;;;;;20700287;28;20701;-44
2024/02/01 22:34:10;;;;;;;0.20;0.00;;;4.30;92.10;;;;;;20701080;28;20977;-46
2024/02/01 22:44:12;;;;;;;0.00;0.00;;;4.90;90.70;;;;;;20699626;28;20983;-43
2024/02/01 22:54:14;;;;;;;0.10;0.00;;;4.90;90.10;;;;;;20688213;28;20192;-44
2024/02/01 23:04:17;;;;;;;0.00;0.00;;;4.80;89.90;;;;;;20685310;28;20108;-45
2024/02/01 23:14:19;;;;;;;0.00;0.00;;;4.80;89.30;;;;;;20681298;28;20112;-44
2024/02/01 23:24:21;;;;;;;0.35;0.00;;;4.70;89.20;;;;;;20684037;28;20566;-44
2024/02/01 23:34:23;;;;;;;0.00;0.00;;;4.70;88.20;;;;;;20683520;28;20142;-46
2024/02/01 23:44:25;;;;;;;0.35;0.00;;;4.40;88.40;;;;;;20682541;28;20475;-46
2024/02/01 23:54:27;;;;;;;0.00;0.00;;;4.00;90.00;;;;;;20681017;28;20128;-43
